Terminal Aerodrome Forecast
Issued by NWS

Home | Current Version | Previous Version | Graphics & Text | Print | Product List | Glossary On
Versions: 1 2 3 4 5 6 7 8 9 10 11 12 13 14 15
000
FTUS43 KBIS 210530
TAFJMS
TAF
KJMS 210530Z 2106/2206 17014G22KT P6SM FEW250 WS020/19045KT
     FM210800 21012KT P6SM FEW250 WS020/20040KT
     FM211000 24013KT P6SM SCT250 WS020/24030KT
     FM211200 28014KT P6SM VCSH SCT150 SCT250 WS020/29030KT
     FM211600 29017G26KT P6SM VCSH BKN100 BKN250 WS020/29030KT
     FM220200 27010KT P6SM SCT080 WS020/29035KT=

USA.gov is the U.S. government's official web portal to all federal, state and local government web resources and services.